createdAt,value
2022-10-26T00:00:28.668Z,93.72
2022-10-26T00:02:56.864Z,92.39
2022-10-26T00:05:24.663Z,93.75
2022-10-26T00:07:51.793Z,95.06
2022-10-26T00:10:19.163Z,94.48
2022-10-26T00:12:49.869Z,95.01
2022-10-26T00:15:18.295Z,93.96
2022-10-26T00:17:46.792Z,91.35
2022-10-26T00:20:15.058Z,92.02
2022-10-26T00:22:42.096Z,91.29
2022-10-26T00:25:09.353Z,91.88
2022-10-26T00:27:36.078Z,90.92
2022-10-26T00:30:04.868Z,92.68
2022-10-26T00:32:32.886Z,92.18
2022-10-26T00:35:10.314Z,92.84
2022-10-26T00:37:47.237Z,92.70
2022-10-26T00:40:14.394Z,92.27
2022-10-26T00:42:41.144Z,92.98
2022-10-26T00:45:23.570Z,92.13
2022-10-26T00:48:14.651Z,92.52
2022-10-26T00:50:44.659Z,94.06
2022-10-26T00:53:13.004Z,94.58
2022-10-26T00:55:46.494Z,95.23
2022-10-26T00:58:14.757Z,95.21
2022-10-26T01:00:43.175Z,94.51
2022-10-26T01:03:11.320Z,91.87
2022-10-26T01:05:44.301Z,91.91
2022-10-26T01:08:12.463Z,91.41
2022-10-26T01:10:41.843Z,91.21
2022-10-26T01:13:09.755Z,91.33
2022-10-26T01:15:47.038Z,89.36
2022-10-26T01:18:24.317Z,90.61
2022-10-26T01:21:28.314Z,93.41
2022-10-26T01:23:55.333Z,93.99
2022-10-26T01:26:33.160Z,93.76
2022-10-26T01:29:34.255Z,94.68
2022-10-26T01:32:08.037Z,92.54
2022-10-26T01:34:41.127Z,92.69
2022-10-26T01:37:19.603Z,94.27
2022-10-26T01:39:52.914Z,95.25
2022-10-26T01:42:23.686Z,93.94
2022-10-26T01:44:57.876Z,92.33
2022-10-26T01:47:27.734Z,89.98
2022-10-26T01:49:58.222Z,93.06
2022-10-26T01:52:25.988Z,93.86
2022-10-26T01:55:01.424Z,94.15
2022-10-26T01:57:33.108Z,95.33
2022-10-26T02:00:10.222Z,94.99
2022-10-26T02:03:13.557Z,95.49
2022-10-26T02:05:54.738Z,95.90
2022-10-26T02:08:36.898Z,95.84
2022-10-26T02:11:28.559Z,93.75
2022-10-26T02:14:10.544Z,96.20
2022-10-26T02:16:43.267Z,96.69
2022-10-26T02:19:22.605Z,95.28
2022-10-26T02:21:54.829Z,94.58
2022-10-26T02:24:23.259Z,92.95
2022-10-26T02:26:53.094Z,92.57
2022-10-26T02:29:21.164Z,93.78
2022-10-26T02:31:50.043Z,95.52
2022-10-26T02:34:23.910Z,94.73
2022-10-26T02:36:54.237Z,94.81
2022-10-26T02:39:23.110Z,94.69
2022-10-26T02:41:51.716Z,92.62
2022-10-26T02:44:26.931Z,94.76
2022-10-26T02:46:55.926Z,95.37
2022-10-26T02:49:23.159Z,95.86
2022-10-26T02:52:15.752Z,95.98
2022-10-26T02:54:53.872Z,96.39
2022-10-26T02:57:34.264Z,97.50
2022-10-26T03:00:02.025Z,96.55
2022-10-26T03:02:29.101Z,97.04
2022-10-26T03:04:56.684Z,94.22
2022-10-26T03:07:24.991Z,95.40
2022-10-26T03:09:51.863Z,94.06
2022-10-26T03:12:18.616Z,91.26
2022-10-26T03:14:45.323Z,93.95
2022-10-26T03:17:12.077Z,93.18
2022-10-26T03:19:38.764Z,95.23
2022-10-26T03:22:05.813Z,95.69
2022-10-26T03:24:32.624Z,92.79
2022-10-26T03:27:02.062Z,92.71
2022-10-26T03:29:29.445Z,93.59
2022-10-26T03:31:56.213Z,93.19
2022-10-26T03:34:22.989Z,95.01
2022-10-26T03:36:49.684Z,93.00
2022-10-26T03:39:16.527Z,92.13
2022-10-26T03:41:43.205Z,92.24
2022-10-26T03:44:10.116Z,92.14
2022-10-26T03:46:36.856Z,91.93
2022-10-26T03:49:03.577Z,90.93
2022-10-26T03:51:31.037Z,92.46
2022-10-26T03:53:57.897Z,91.38
2022-10-26T03:56:24.649Z,94.33
2022-10-26T03:58:51.710Z,94.38
2022-10-26T04:01:18.657Z,96.05
2022-10-26T04:03:45.683Z,96.03
2022-10-26T04:06:12.680Z,95.45
2022-10-26T04:08:39.415Z,95.45
2022-10-26T04:11:06.375Z,95.39
2022-10-26T04:13:33.617Z,95.99
2022-10-26T04:16:01.171Z,96.25
2022-10-26T04:18:28.507Z,96.86
2022-10-26T04:20:57.039Z,96.82
2022-10-26T04:25:51.987Z,93.26
2022-10-26T04:28:18.771Z,93.98
2022-10-26T04:30:47.843Z,93.82
2022-10-26T04:33:14.571Z,92.86
2022-10-26T04:35:41.754Z,93.20
2022-10-26T04:38:10.537Z,95.72
2022-10-26T04:40:37.613Z,96.55
2022-10-26T04:43:04.356Z,96.15
2022-10-26T04:45:32.314Z,95.31
2022-10-26T04:48:11.190Z,96.16
2022-10-26T04:50:39.585Z,96.75
2022-10-26T04:53:08.773Z,98.18
2022-10-26T04:55:36.372Z,97.74
2022-10-26T04:58:03.519Z,96.63
2022-10-26T05:00:31.216Z,96.05
2022-10-26T05:03:06.965Z,97.08
2022-10-26T05:05:36.022Z,98.20
2022-10-26T05:08:03.493Z,98.68
2022-10-26T05:10:30.609Z,98.29
2022-10-26T05:12:59.116Z,98.75
2022-10-26T05:15:27.285Z,98.94
2022-10-26T05:17:56.610Z,98.82
2022-10-26T05:20:23.728Z,98.95
2022-10-26T05:22:53.786Z,99.05
2022-10-26T05:25:20.634Z,99.02
2022-10-26T05:27:47.331Z,98.04
2022-10-26T05:30:14.547Z,96.61
2022-10-26T05:32:41.741Z,95.42
2022-10-26T05:35:08.686Z,95.10
2022-10-26T05:37:35.511Z,95.99
2022-10-26T05:40:02.360Z,96.91
2022-10-26T05:42:29.352Z,96.63
2022-10-26T05:44:56.210Z,96.71
2022-10-26T05:47:22.958Z,95.37
2022-10-26T05:49:50.682Z,94.67
2022-10-26T05:52:17.761Z,94.23
2022-10-26T05:54:44.532Z,96.19
2022-10-26T05:57:12.702Z,96.59
2022-10-26T05:59:39.883Z,97.36
2022-10-26T06:02:25.135Z,97.59
2022-10-26T06:04:56.996Z,97.80
2022-10-26T06:07:25.453Z,98.13
2022-10-26T06:09:52.430Z,97.36
2022-10-26T06:12:19.998Z,98.39
2022-10-26T06:14:47.656Z,98.91
2022-10-26T06:17:49.815Z,98.34
2022-10-26T06:20:35.197Z,97.24
2022-10-26T06:23:43.336Z,95.96
2022-10-26T06:26:35.925Z,95.27
2022-10-26T06:29:37.904Z,95.94
2022-10-26T06:32:04.808Z,96.43
2022-10-26T06:34:38.444Z,96.49
2022-10-26T06:37:05.371Z,96.40
2022-10-26T06:39:37.049Z,97.35
2022-10-26T06:42:04.186Z,97.95
2022-10-26T06:44:31.297Z,98.98
2022-10-26T06:47:07.116Z,98.13
2022-10-26T06:50:12.467Z,97.57
2022-10-26T06:52:48.948Z,98.57
2022-10-26T06:55:16.810Z,98.89
2022-10-26T06:57:44.168Z,99.81
2022-10-26T07:00:21.375Z,99.59
2022-10-26T07:02:49.979Z,99.66
2022-10-26T07:05:17.886Z,99.13
2022-10-26T07:07:46.778Z,99.25
2022-10-26T07:10:15.111Z,98.22
2022-10-26T07:12:41.915Z,98.03
2022-10-26T07:17:49.104Z,98.05
2022-10-26T07:20:18.552Z,98.54
2022-10-26T07:22:45.454Z,97.88
2022-10-26T07:25:13.031Z,97.95
2022-10-26T07:27:39.857Z,97.05
2022-10-26T07:30:07.423Z,97.51
2022-10-26T07:32:34.279Z,98.47
2022-10-26T07:35:01.028Z,98.11
2022-10-26T07:37:28.121Z,98.23
2022-10-26T07:39:54.995Z,98.13
2022-10-26T07:42:21.995Z,97.43
2022-10-26T07:44:49.008Z,98.51
2022-10-26T07:47:16.103Z,97.71
2022-10-26T07:49:42.915Z,98.03
2022-10-26T07:52:10.533Z,98.55
2022-10-26T07:54:37.559Z,97.49
2022-10-26T07:59:32.386Z,96.99
2022-10-26T08:01:59.351Z,97.26
2022-10-26T08:04:26.207Z,97.25
2022-10-26T08:06:53.007Z,97.45
2022-10-26T08:09:20.797Z,98.07
2022-10-26T08:11:47.734Z,99.40
2022-10-26T08:14:14.814Z,98.67
2022-10-26T08:16:41.592Z,99.08
2022-10-26T08:19:08.624Z,99.11
2022-10-26T08:21:40.201Z,99.38
2022-10-26T08:24:07.938Z,99.66
2022-10-26T08:26:34.886Z,99.32
2022-10-26T08:29:02.859Z,100.00
2022-10-26T08:31:30.049Z,100.00
2022-10-26T08:33:57.203Z,100.00
2022-10-26T08:36:26.668Z,100.00
2022-10-26T08:38:53.861Z,100.00
2022-10-26T08:41:49.318Z,100.00
2022-10-26T08:44:47.928Z,100.00
2022-10-26T08:47:21.011Z,100.00
2022-10-26T08:50:02.738Z,100.00
2022-10-26T08:52:51.220Z,100.00
2022-10-26T08:55:26.618Z,100.00
2022-10-26T08:57:55.150Z,100.00
2022-10-26T09:00:25.509Z,99.71
2022-10-26T09:02:53.802Z,99.48
2022-10-26T09:05:45.357Z,99.24
2022-10-26T09:08:25.341Z,99.90
2022-10-26T09:11:00.736Z,100.00
2022-10-26T09:13:50.812Z,100.00
2022-10-26T09:16:30.831Z,100.00
2022-10-26T09:19:19.946Z,100.00
2022-10-26T09:22:01.840Z,100.00
2022-10-26T09:24:34.370Z,100.00
2022-10-26T09:27:12.250Z,99.88
2022-10-26T09:29:42.972Z,100.00
2022-10-26T09:32:21.694Z,100.00
2022-10-26T09:34:55.057Z,100.00
2022-10-26T09:37:32.091Z,100.00
2022-10-26T09:40:11.203Z,99.83
2022-10-26T09:42:47.212Z,100.00
2022-10-26T09:45:33.889Z,100.00
2022-10-26T09:48:25.653Z,100.00
2022-10-26T09:50:53.255Z,100.00
2022-10-26T09:53:19.974Z,100.00
2022-10-26T09:55:49.716Z,100.00
2022-10-26T09:58:25.365Z,99.62
2022-10-26T10:00:53.777Z,100.00
2022-10-26T10:03:26.959Z,100.00
2022-10-26T10:05:54.717Z,99.82
2022-10-26T10:08:26.806Z,99.17
2022-10-26T10:11:03.806Z,99.06
2022-10-26T10:13:42.034Z,98.75
2022-10-26T10:16:22.948Z,99.35
2022-10-26T10:18:55.419Z,100.00
2022-10-26T10:21:37.635Z,99.69
2022-10-26T10:24:33.930Z,99.50
2022-10-26T10:27:05.698Z,98.76
2022-10-26T10:29:41.600Z,98.50
2022-10-26T10:32:30.102Z,98.78
2022-10-26T10:34:59.148Z,98.49
2022-10-26T10:37:35.079Z,98.42
2022-10-26T10:40:07.148Z,98.09
2022-10-26T10:42:41.310Z,97.80
2022-10-26T10:45:26.117Z,98.02
2022-10-26T10:48:02.870Z,98.19
2022-10-26T10:50:31.620Z,99.14
2022-10-26T10:53:18.482Z,98.48
2022-10-26T10:56:30.271Z,99.15
2022-10-26T10:58:59.953Z,98.46
2022-10-26T11:01:35.037Z,98.83
2022-10-26T11:04:16.955Z,98.05
2022-10-26T11:06:45.690Z,97.09
2022-10-26T11:09:18.787Z,97.33
2022-10-26T11:11:59.601Z,97.54
2022-10-26T11:14:32.944Z,98.00
2022-10-26T11:17:08.325Z,98.35
2022-10-26T11:19:49.352Z,97.95
2022-10-26T11:22:23.901Z,97.93
2022-10-26T11:24:54.801Z,97.43
2022-10-26T11:27:35.143Z,97.16
2022-10-26T11:30:07.555Z,97.12
2022-10-26T11:33:03.931Z,97.01
2022-10-26T11:35:51.323Z,96.41
2022-10-26T11:38:57.082Z,95.86
2022-10-26T11:41:32.614Z,95.68
2022-10-26T11:44:30.606Z,95.68
2022-10-26T11:47:03.909Z,95.49
2022-10-26T11:49:53.915Z,95.72
2022-10-26T11:52:40.122Z,95.16
2022-10-26T11:55:10.914Z,95.92
2022-10-26T11:57:38.607Z,95.55
2022-10-26T12:00:07.539Z,95.60
2022-10-26T12:05:15.828Z,95.42
2022-10-26T12:07:50.207Z,94.78
2022-10-26T12:10:28.708Z,94.37
2022-10-26T12:13:15.245Z,95.36
2022-10-26T12:16:04.387Z,95.11
2022-10-26T12:19:03.948Z,95.23
2022-10-26T12:21:32.779Z,95.08
2022-10-26T12:24:22.226Z,94.70
2022-10-26T12:26:57.585Z,94.74
2022-10-26T12:29:31.610Z,95.11
2022-10-26T12:31:59.067Z,94.97
2022-10-26T12:34:45.801Z,94.28
2022-10-26T12:37:36.919Z,94.42
2022-10-26T12:40:32.168Z,94.80
2022-10-26T12:43:18.875Z,94.49
2022-10-26T12:45:47.775Z,94.45
2022-10-26T12:48:59.187Z,94.63
2022-10-26T12:51:26.371Z,94.55
2022-10-26T12:54:16.239Z,94.37
2022-10-26T12:57:06.230Z,93.86
2022-10-26T12:59:39.893Z,93.99
2022-10-26T13:02:51.480Z,94.17
2022-10-26T13:05:33.672Z,93.84
2022-10-26T13:08:09.580Z,93.73
2022-10-26T13:10:40.593Z,93.68
2022-10-26T13:13:09.403Z,93.19
2022-10-26T13:15:52.632Z,93.23
2022-10-26T13:18:21.439Z,93.54
2022-10-26T13:21:09.682Z,94.15
2022-10-26T13:23:40.163Z,93.55
2022-10-26T13:26:10.324Z,94.01
2022-10-26T13:28:40.363Z,94.03
2022-10-26T13:31:13.015Z,93.44
2022-10-26T13:33:45.824Z,93.99
2022-10-26T13:36:38.755Z,94.18
2022-10-26T13:39:13.083Z,94.20
2022-10-26T13:41:43.783Z,94.22
2022-10-26T13:44:35.483Z,93.93
2022-10-26T13:47:18.046Z,94.04
2022-10-26T13:49:48.126Z,94.14
2022-10-26T13:52:25.643Z,93.90
2022-10-26T13:55:03.928Z,93.88
2022-10-26T13:57:36.308Z,93.60
2022-10-26T14:00:09.847Z,93.98
2022-10-26T14:02:43.205Z,94.07
2022-10-26T14:05:12.248Z,94.15
2022-10-26T14:07:55.653Z,94.18
2022-10-26T14:10:37.705Z,93.98
2022-10-26T14:13:15.989Z,93.87
2022-10-26T14:15:44.995Z,93.80
2022-10-26T14:18:18.378Z,93.96
2022-10-26T14:21:13.887Z,93.60
2022-10-26T14:23:53.478Z,93.56
2022-10-26T14:26:22.459Z,94.02
2022-10-26T14:28:54.019Z,94.11
2022-10-26T14:31:35.485Z,93.92
2022-10-26T14:34:04.838Z,93.93
2022-10-26T14:36:41.826Z,93.48
2022-10-26T14:39:21.402Z,93.82
2022-10-26T14:41:52.892Z,93.64
2022-10-26T14:44:23.104Z,93.61
2022-10-26T14:46:51.357Z,93.43
2022-10-26T14:49:27.453Z,93.17
2022-10-26T14:52:05.724Z,93.43
2022-10-26T14:54:33.062Z,93.82
2022-10-26T14:57:00.224Z,93.48
2022-10-26T14:59:32.171Z,93.84
2022-10-26T15:02:10.923Z,94.31
2022-10-26T15:04:40.544Z,94.18
2022-10-26T15:07:15.442Z,94.08
2022-10-26T15:09:45.255Z,94.11
2022-10-26T15:12:21.044Z,94.67
2022-10-26T15:14:50.889Z,94.62
2022-10-26T15:17:35.924Z,94.62
2022-10-26T15:20:05.976Z,93.98
2022-10-26T15:22:34.625Z,93.97
2022-10-26T15:25:06.368Z,94.71
2022-10-26T15:27:33.251Z,95.04
2022-10-26T15:30:23.649Z,94.72
2022-10-26T15:32:52.712Z,95.32
2022-10-26T15:35:19.846Z,95.64
2022-10-26T15:37:47.749Z,95.82
2022-10-26T15:40:15.412Z,95.51
2022-10-26T15:42:43.464Z,94.80
2022-10-26T15:45:21.758Z,95.93
2022-10-26T15:47:51.359Z,95.94
2022-10-26T15:50:22.006Z,95.89
2022-10-26T15:52:49.836Z,95.28
2022-10-26T15:55:17.686Z,95.66
2022-10-26T15:57:45.105Z,95.79
2022-10-26T16:00:18.407Z,95.72
2022-10-26T16:02:46.130Z,95.75
2022-10-26T16:05:14.598Z,95.92
2022-10-26T16:07:43.740Z,96.28
2022-10-26T16:10:22.152Z,96.36
2022-10-26T16:12:50.229Z,95.49
2022-10-26T16:15:22.593Z,96.24
2022-10-26T16:17:49.870Z,96.65
2022-10-26T16:20:23.064Z,97.03
2022-10-26T16:22:55.159Z,96.69
2022-10-26T16:25:25.384Z,96.39
2022-10-26T16:27:54.627Z,95.65
2022-10-26T16:30:24.741Z,96.63
2022-10-26T16:32:54.206Z,96.66
2022-10-26T16:35:22.923Z,97.47
2022-10-26T16:37:50.333Z,97.48
2022-10-26T16:40:17.284Z,95.90
2022-10-26T16:42:44.612Z,95.94
2022-10-26T16:45:13.707Z,97.20
2022-10-26T16:47:41.338Z,97.61
2022-10-26T16:50:10.322Z,98.02
2022-10-26T16:52:39.987Z,98.04
2022-10-26T16:55:09.951Z,98.11
2022-10-26T16:57:38.626Z,97.96
2022-10-26T17:00:07.247Z,96.84
2022-10-26T17:02:34.907Z,97.18
2022-10-26T17:05:05.894Z,97.73
2022-10-26T17:07:35.609Z,97.80
2022-10-26T17:10:04.771Z,97.04
2022-10-26T17:12:33.339Z,97.23
2022-10-26T17:15:01.405Z,97.60
2022-10-26T17:17:28.949Z,97.45
2022-10-26T17:19:57.647Z,98.37
2022-10-26T17:22:26.138Z,97.84
2022-10-26T17:24:54.689Z,97.98
2022-10-26T17:27:22.062Z,98.39
2022-10-26T17:29:49.966Z,98.92
2022-10-26T17:32:17.595Z,98.25
2022-10-26T17:34:46.734Z,99.16
2022-10-26T17:37:15.301Z,100.00
2022-10-26T17:39:43.086Z,98.69
2022-10-26T17:42:11.168Z,99.90
2022-10-26T17:44:39.284Z,99.11
2022-10-26T17:47:06.665Z,98.37
2022-10-26T17:49:36.183Z,99.20
2022-10-26T17:52:05.484Z,98.37
2022-10-26T17:54:35.229Z,98.08
2022-10-26T17:57:03.298Z,98.16
2022-10-26T17:59:30.718Z,98.50
2022-10-26T18:01:58.991Z,98.04
2022-10-26T18:04:27.832Z,98.20
2022-10-26T18:06:56.254Z,98.54
2022-10-26T18:09:26.630Z,98.50
2022-10-26T18:11:56.230Z,98.27
2022-10-26T18:14:24.377Z,98.79
2022-10-26T18:16:51.989Z,98.92
2022-10-26T18:19:19.819Z,98.77
2022-10-26T18:21:47.809Z,98.23
2022-10-26T18:24:16.151Z,98.54
2022-10-26T18:26:44.550Z,98.36
2022-10-26T18:29:14.263Z,98.20
2022-10-26T18:31:45.422Z,98.40
2022-10-26T18:34:13.213Z,98.65
2022-10-26T18:36:42.561Z,98.29
2022-10-26T18:39:10.503Z,98.52
2022-10-26T18:41:38.101Z,97.73
2022-10-26T18:44:08.706Z,98.25
2022-10-26T18:46:40.561Z,98.33
2022-10-26T18:49:09.673Z,97.65
2022-10-26T18:51:37.415Z,98.20
2022-10-26T18:54:05.414Z,99.14
2022-10-26T18:56:32.664Z,99.33
2022-10-26T18:59:01.174Z,99.64
2022-10-26T19:01:33.011Z,99.18
2022-10-26T19:04:04.697Z,100.00
2022-10-26T19:06:35.665Z,99.50
2022-10-26T19:09:05.505Z,99.28
2022-10-26T19:11:36.179Z,100.00
2022-10-26T19:14:04.826Z,100.00
2022-10-26T19:16:51.617Z,100.00
2022-10-26T19:19:20.816Z,100.00
2022-10-26T19:21:50.425Z,100.00
2022-10-26T19:24:20.571Z,100.00
2022-10-26T19:26:48.912Z,100.00
2022-10-26T19:29:17.902Z,100.00
2022-10-26T19:31:47.045Z,99.12
2022-10-26T19:34:16.881Z,98.58
2022-10-26T19:36:49.072Z,99.80
2022-10-26T19:39:19.310Z,99.91
2022-10-26T19:41:49.081Z,100.00
2022-10-26T19:44:17.324Z,100.00
2022-10-26T19:46:46.432Z,100.00
2022-10-26T19:49:13.958Z,100.00
2022-10-26T19:51:43.030Z,100.00
2022-10-26T19:54:11.498Z,100.00
2022-10-26T19:56:39.523Z,99.24
2022-10-26T19:59:07.484Z,99.83
2022-10-26T20:01:35.669Z,100.00
2022-10-26T20:04:04.473Z,100.00
2022-10-26T20:06:34.069Z,100.00
2022-10-26T20:09:03.780Z,99.96
2022-10-26T20:11:31.486Z,99.46
2022-10-26T20:13:59.437Z,99.56
2022-10-26T20:16:27.994Z,99.39
2022-10-26T20:18:56.807Z,98.64
2022-10-26T20:21:24.427Z,100.00
2022-10-26T20:23:52.758Z,99.30
2022-10-26T20:26:23.339Z,99.92
2022-10-26T20:28:52.237Z,99.22
2022-10-26T20:31:20.153Z,99.26
2022-10-26T20:33:52.667Z,100.00
2022-10-26T20:36:21.070Z,100.00
2022-10-26T20:38:50.879Z,99.95
2022-10-26T20:41:19.437Z,100.00
2022-10-26T20:43:47.644Z,100.00
2022-10-26T20:46:26.418Z,100.00
2022-10-26T20:48:54.912Z,99.72
2022-10-26T20:51:35.355Z,100.00
2022-10-26T20:54:29.600Z,99.94
2022-10-26T20:56:58.871Z,99.69
2022-10-26T20:59:38.332Z,99.33
2022-10-26T21:02:05.596Z,99.74
2022-10-26T21:04:32.611Z,100.00
2022-10-26T21:06:59.672Z,100.00
2022-10-26T21:09:27.620Z,100.00
2022-10-26T21:11:55.463Z,99.80
2022-10-26T21:14:22.204Z,99.12
2022-10-26T21:16:49.376Z,99.98
2022-10-26T21:19:16.262Z,100.00
2022-10-26T21:21:43.342Z,100.00
2022-10-26T21:24:10.254Z,100.00
2022-10-26T21:26:37.145Z,99.38
2022-10-26T21:29:04.307Z,98.61
2022-10-26T21:31:31.144Z,98.75
2022-10-26T21:33:57.968Z,98.78
2022-10-26T21:36:24.740Z,100.00
2022-10-26T21:38:51.561Z,99.53
2022-10-26T21:41:20.406Z,100.00
2022-10-26T21:43:59.162Z,99.65
2022-10-26T21:46:36.184Z,100.00
2022-10-26T21:49:03.347Z,100.00
2022-10-26T21:51:30.078Z,100.00
2022-10-26T21:53:57.005Z,100.00
2022-10-26T21:56:23.798Z,100.00
2022-10-26T22:02:58.440Z,98.79
2022-10-26T22:05:27.579Z,98.53
2022-10-26T22:07:55.469Z,99.09
2022-10-26T22:10:23.454Z,98.60
2022-10-26T22:12:52.436Z,98.28
2022-10-26T22:15:20.175Z,100.00
2022-10-26T22:17:47.044Z,100.00
2022-10-26T22:20:14.094Z,100.00
2022-10-26T22:22:40.974Z,100.00
2022-10-26T22:25:08.330Z,99.68
2022-10-26T22:27:35.128Z,100.00
2022-10-26T22:30:02.087Z,98.62
2022-10-26T22:32:28.874Z,99.19
2022-10-26T22:35:10.438Z,98.69
2022-10-26T22:37:45.504Z,99.04
2022-10-26T22:40:12.623Z,98.09
2022-10-26T22:42:39.316Z,99.04
2022-10-26T22:45:07.027Z,99.72
2022-10-26T22:47:33.720Z,99.78
2022-10-26T22:50:00.657Z,100.00
2022-10-26T22:52:27.586Z,99.69
2022-10-26T22:55:00.604Z,100.00
2022-10-26T22:57:30.083Z,100.00
2022-10-26T22:59:56.984Z,100.00
2022-10-26T23:02:23.773Z,100.00
2022-10-26T23:04:50.799Z,99.66
2022-10-26T23:07:17.549Z,100.00
2022-10-26T23:09:44.361Z,99.81
2022-10-26T23:12:11.157Z,99.90
2022-10-26T23:14:38.078Z,99.05
2022-10-26T23:17:04.780Z,100.00
2022-10-26T23:19:31.641Z,99.17
2022-10-26T23:21:58.414Z,99.51
2022-10-26T23:24:25.167Z,98.24
2022-10-26T23:26:52.029Z,99.56
2022-10-26T23:29:18.982Z,100.00
2022-10-26T23:31:45.759Z,100.00
2022-10-26T23:34:12.610Z,100.00
2022-10-26T23:36:39.392Z,100.00
2022-10-26T23:39:06.181Z,100.00
2022-10-26T23:41:32.925Z,100.00
2022-10-26T23:43:59.754Z,100.00
2022-10-26T23:48:58.302Z,100.00
2022-10-26T23:51:25.143Z,100.00
2022-10-26T23:53:52.012Z,100.00
2022-10-26T23:56:19.827Z,100.00
2022-10-26T23:58:50.394Z,99.75
